الصفحة الرئيسية
METAR-TAF:

METAR-TAF

مطار :

Bluefields, نيكاراغوا

دائرة عرض: 12-00N, خط طول: 083-46W, ارتفاع: 5 متر

مراقبة الطقس الحالي

تاريخ ووقت الإصدار 4ساعات و 37 دقيقة قبل الساعة 22:00UTC
ريح 4 عقدة من الشرق
درجة الحرارة 29°درجة مئوية
الرطوبة 79%
ضغط 1008 hPa
الرؤية 10 كم أو أكثر
غيوم قليلة على ارتفاع 2200 قدم
غيوم متفرقة على ارتفاع 9000 قدم

METAR: MNBL 252200Z 09004KT 9999 FEW022 SCT090 29/25 Q1008

زمن: 20:37 (02:37 UTC)

توقعات

تاريخ ووقت الإصدار 5ساعات و 20 دقيقة قبل الساعة 21:17UTC
التوقعات صالحة من26 الساعة 00 UTC إلى 26 الساعة 24 UTC
ريح 6 عقدة من الشرق
الرؤية 10 كم أو أكثر
غيوم متفرقة على ارتفاع 8000 قدم
غيوم متفرقة على ارتفاع 2000 قدم
مؤقت
بين 26 و 00 UTC
ريح عقدة من الشمال

TAF: MNBL 252117Z 2600/2624 10006KT 9999 SCT080 SCT020 TEMPO 26006/2612 00000KT

أرصاد الطقس والتوقعات من أكثر من 4000 مطار (تقارير الطقس للمطار METAR والتنبؤ بالطقس بالمطارTAF).

المحطات المتاحة هي النقط الصفراء والحمراء على الخريطة.

حرك المؤشر فوق النقطة لمعرفة اسم المحطة.

ثم انقر لمعرفة أرصاد وتوقعات الطقس.

لتغيير الخارطة: اضغط على الأزرار الخضراء مع رمز الصليب الأسود للتكبير. على الزر الأخضر مع شرطة للتصغير، أو على الأسهم الخضراء للخرائط المجاورة.


METAR-TAF: